createdAt,value
2019-06-07T00:00:38.769Z,26.12
2019-06-07T00:01:22.332Z,26.13
2019-06-07T00:02:22.324Z,26.08
2019-06-07T00:03:29.687Z,26.13
2019-06-07T00:04:22.300Z,26.12
2019-06-07T00:05:22.324Z,26.06
2019-06-07T00:06:25.424Z,26.04
2019-06-07T00:07:22.257Z,26.03
2019-06-07T00:08:28.023Z,26.12
2019-06-07T00:09:22.845Z,26.08
2019-06-07T00:10:36.119Z,26.09
2019-06-07T00:11:22.246Z,26.06
2019-06-07T00:12:22.210Z,26.09
2019-06-07T00:13:22.202Z,26.06
2019-06-07T00:14:22.187Z,26.12
2019-06-07T00:15:28.769Z,26.03
2019-06-07T00:16:23.443Z,26.08
2019-06-07T00:17:22.153Z,26.09
2019-06-07T00:18:25.841Z,26.04
2019-06-07T00:19:22.183Z,26.09
2019-06-07T00:20:23.654Z,26.08
2019-06-07T00:22:06.599Z,26.08
2019-06-07T00:22:32.352Z,26.11
2019-06-07T00:23:22.927Z,26.03
2019-06-07T00:24:22.295Z,26.00
2019-06-07T00:25:24.415Z,26.11
2019-06-07T00:26:22.112Z,26.01
2019-06-07T00:27:22.655Z,26.08
2019-06-07T00:28:22.037Z,26.09
2019-06-07T00:29:22.245Z,26.06
2019-06-07T00:30:50.741Z,26.09
2019-06-07T00:31:24.506Z,26.11
2019-06-07T00:32:22.370Z,26.09
2019-06-07T00:33:24.769Z,26.01
2019-06-07T00:34:23.039Z,26.06
2019-06-07T00:35:22.553Z,26.00
2019-06-07T00:36:23.259Z,26.04
2019-06-07T00:37:25.143Z,26.01
2019-06-07T00:38:22.133Z,26.06
2019-06-07T00:39:25.348Z,26.03
2019-06-07T00:40:31.445Z,26.04
2019-06-07T00:41:22.404Z,26.03
2019-06-07T00:42:24.202Z,26.01
2019-06-07T00:43:27.911Z,25.94
2019-06-07T00:44:23.317Z,25.98
2019-06-07T00:45:24.478Z,25.98
2019-06-07T00:46:25.317Z,25.96
2019-06-07T00:47:24.998Z,25.98
2019-06-07T00:48:31.773Z,26.00
2019-06-07T00:49:39.911Z,25.94
2019-06-07T00:50:24.074Z,26.03
2019-06-07T00:51:23.891Z,25.98
2019-06-07T00:53:11.462Z,26.00
2019-06-07T00:53:31.675Z,25.97
2019-06-07T00:54:24.071Z,25.93
2019-06-07T00:55:27.045Z,25.90
2019-06-07T00:56:23.419Z,25.91
2019-06-07T00:57:24.227Z,25.97
2019-06-07T00:58:27.263Z,25.96
2019-06-07T00:59:28.633Z,25.94
2019-06-07T01:00:23.575Z,25.96
2019-06-07T01:01:24.881Z,25.89
2019-06-07T01:02:26.022Z,25.93
2019-06-07T01:03:25.212Z,25.96
2019-06-07T01:04:25.290Z,25.94
2019-06-07T01:05:28.646Z,26.00
2019-06-07T01:06:23.431Z,26.01
2019-06-07T01:07:22.490Z,25.90
2019-06-07T01:08:27.557Z,25.98
2019-06-07T01:09:23.948Z,25.94
2019-06-07T01:10:50.125Z,25.98
2019-06-07T01:11:25.404Z,25.97
2019-06-07T01:12:23.573Z,25.93
2019-06-07T01:13:24.153Z,25.97
2019-06-07T01:14:24.539Z,25.90
2019-06-07T01:15:23.495Z,25.89
2019-06-07T01:16:23.719Z,25.83
2019-06-07T01:17:33.082Z,25.85
2019-06-07T01:18:41.139Z,25.86
2019-06-07T01:19:25.905Z,25.86
2019-06-07T01:20:24.187Z,25.82
2019-06-07T01:21:24.806Z,25.85
2019-06-07T01:22:23.567Z,25.86
2019-06-07T01:24:03.203Z,25.85
2019-06-07T01:24:24.402Z,25.83
2019-06-07T01:25:22.716Z,25.83
2019-06-07T01:26:23.793Z,25.85
2019-06-07T01:27:24.182Z,25.85
2019-06-07T01:28:26.398Z,25.83
2019-06-07T01:29:22.253Z,25.83
2019-06-07T01:30:24.128Z,25.85
2019-06-07T01:31:24.418Z,25.86
2019-06-07T01:32:23.828Z,25.85
2019-06-07T01:33:23.497Z,25.89
2019-06-07T01:34:25.185Z,25.82
2019-06-07T01:35:22.078Z,25.78
2019-06-07T01:36:22.317Z,25.82
2019-06-07T01:37:24.893Z,25.76
2019-06-07T01:38:24.359Z,25.82
2019-06-07T01:39:23.980Z,25.75
2019-06-07T01:40:28.455Z,25.71
2019-06-07T01:41:23.651Z,25.71
2019-06-07T01:42:22.641Z,25.78
2019-06-07T01:43:26.190Z,25.71
2019-06-07T01:44:24.135Z,25.69
2019-06-07T01:45:21.422Z,25.75
2019-06-07T01:46:23.407Z,25.75
2019-06-07T01:47:24.927Z,25.78
2019-06-07T01:48:25.334Z,25.72
2019-06-07T01:49:22.171Z,25.71
2019-06-07T01:50:23.320Z,25.75
2019-06-07T01:51:22.016Z,25.78
2019-06-07T01:52:24.491Z,25.72
2019-06-07T01:53:23.701Z,25.74
2019-06-07T01:55:23.689Z,25.75
2019-06-07T01:56:22.558Z,25.67
2019-06-07T01:57:38.253Z,25.72
2019-06-07T01:58:22.247Z,25.76
2019-06-07T01:59:21.945Z,25.74
2019-06-07T02:00:22.114Z,25.72
2019-06-07T02:01:23.309Z,25.71
2019-06-07T02:02:22.737Z,25.72
2019-06-07T02:03:22.326Z,25.75
2019-06-07T02:04:23.303Z,25.71
2019-06-07T02:05:22.898Z,25.66
2019-06-07T02:06:23.746Z,25.71
2019-06-07T02:07:25.816Z,25.69
2019-06-07T02:08:22.233Z,25.78
2019-06-07T02:09:21.026Z,25.74
2019-06-07T02:10:24.666Z,25.71
2019-06-07T02:11:22.037Z,25.75
2019-06-07T02:12:28.064Z,25.63
2019-06-07T02:13:21.304Z,25.63
2019-06-07T02:14:23.879Z,25.61
2019-06-07T02:15:23.055Z,25.60
2019-06-07T02:16:21.836Z,25.60
2019-06-07T02:17:24.403Z,25.59
2019-06-07T02:18:23.223Z,25.56
2019-06-07T02:19:21.997Z,25.63
2019-06-07T02:20:22.957Z,25.60
2019-06-07T02:21:23.264Z,25.60
2019-06-07T02:22:21.821Z,25.61
2019-06-07T02:23:23.227Z,25.64
2019-06-07T02:24:23.531Z,25.61
2019-06-07T02:25:38.309Z,25.59
2019-06-07T02:26:20.774Z,25.57
2019-06-07T02:27:20.852Z,25.60
2019-06-07T02:28:32.072Z,25.61
2019-06-07T02:29:20.740Z,25.56
2019-06-07T02:30:40.504Z,25.60
2019-06-07T02:31:21.725Z,25.59
2019-06-07T02:32:21.700Z,25.56
2019-06-07T02:33:25.830Z,25.57
2019-06-07T02:34:21.504Z,25.66
2019-06-07T02:35:25.508Z,25.66
2019-06-07T02:36:25.677Z,25.61
2019-06-07T02:37:21.618Z,25.60
2019-06-07T02:38:23.095Z,25.57
2019-06-07T02:39:24.021Z,25.57
2019-06-07T02:40:21.968Z,25.61
2019-06-07T02:41:22.938Z,25.63
2019-06-07T02:42:25.212Z,25.63
2019-06-07T02:43:22.084Z,25.57
2019-06-07T02:44:23.135Z,25.56
2019-06-07T02:45:20.578Z,25.56
2019-06-07T02:46:27.706Z,25.59
2019-06-07T02:47:20.543Z,25.53
2019-06-07T02:48:20.540Z,25.53
2019-06-07T02:49:20.577Z,25.60
2019-06-07T02:50:20.514Z,25.53
2019-06-07T02:51:20.509Z,25.57
2019-06-07T02:52:20.494Z,25.49
2019-06-07T02:53:20.508Z,25.60
2019-06-07T02:54:20.464Z,25.51
2019-06-07T02:55:20.459Z,25.51
2019-06-07T02:56:41.966Z,25.51
2019-06-07T02:57:20.435Z,25.51
2019-06-07T02:58:20.449Z,25.46
2019-06-07T02:59:45.649Z,25.49
2019-06-07T03:00:45.804Z,25.51
2019-06-07T03:01:20.401Z,25.49
2019-06-07T03:02:20.392Z,25.46
2019-06-07T03:03:22.375Z,25.46
2019-06-07T03:04:20.365Z,25.53
2019-06-07T03:05:20.367Z,25.46
2019-06-07T03:06:20.345Z,25.53
2019-06-07T03:07:20.343Z,25.49
2019-06-07T03:08:20.331Z,25.46
2019-06-07T03:09:20.316Z,25.54
2019-06-07T03:10:20.291Z,25.48
2019-06-07T03:11:20.302Z,25.46
2019-06-07T03:12:20.277Z,25.48
2019-06-07T03:13:20.326Z,25.53
2019-06-07T03:14:20.275Z,25.44
2019-06-07T03:15:32.869Z,25.48
2019-06-07T03:16:20.246Z,25.48
2019-06-07T03:17:20.227Z,25.48
2019-06-07T03:18:20.246Z,25.41
2019-06-07T03:19:20.198Z,25.48
2019-06-07T03:20:20.188Z,25.48
2019-06-07T03:21:20.182Z,25.48
2019-06-07T03:22:20.195Z,25.41
2019-06-07T03:23:20.174Z,25.39
2019-06-07T03:24:20.162Z,25.48
2019-06-07T03:25:20.131Z,25.48
2019-06-07T03:26:20.124Z,25.41
2019-06-07T03:27:34.693Z,25.35
2019-06-07T03:28:20.140Z,25.41
2019-06-07T03:29:20.128Z,25.42
2019-06-07T03:30:38.826Z,25.48
2019-06-07T03:31:20.084Z,25.41
2019-06-07T03:32:20.101Z,25.44
2019-06-07T03:33:20.080Z,25.38
2019-06-07T03:34:20.051Z,25.38
2019-06-07T03:35:20.040Z,25.38
2019-06-07T03:36:25.625Z,25.38
2019-06-07T03:37:20.024Z,25.35
2019-06-07T03:38:20.006Z,25.38
2019-06-07T03:39:19.994Z,25.36
2019-06-07T03:40:19.972Z,25.36
2019-06-07T03:41:19.966Z,25.41
2019-06-07T03:42:19.954Z,25.39
2019-06-07T03:43:19.948Z,25.35
2019-06-07T03:44:19.944Z,25.36
2019-06-07T03:45:19.924Z,25.30
2019-06-07T03:46:19.911Z,25.31
2019-06-07T03:47:19.903Z,25.30
2019-06-07T03:48:19.895Z,25.34
2019-06-07T03:49:19.880Z,25.36
2019-06-07T03:50:19.903Z,25.31
2019-06-07T03:51:25.147Z,25.31
2019-06-07T03:52:19.846Z,25.30
2019-06-07T03:53:19.832Z,25.27
2019-06-07T03:54:19.856Z,25.29
2019-06-07T03:55:19.815Z,25.30
2019-06-07T03:56:19.810Z,25.34
2019-06-07T03:57:19.797Z,25.29
2019-06-07T03:58:47.909Z,25.29
2019-06-07T03:59:19.782Z,25.34
2019-06-07T04:00:19.809Z,25.31
2019-06-07T04:01:19.758Z,25.34
2019-06-07T04:02:19.736Z,25.26
2019-06-07T04:03:33.589Z,25.26
2019-06-07T04:04:19.729Z,25.26
2019-06-07T04:05:19.711Z,25.29
2019-06-07T04:06:19.694Z,25.24
2019-06-07T04:07:19.698Z,25.36
2019-06-07T04:08:19.699Z,25.26
2019-06-07T04:09:19.689Z,25.27
2019-06-07T04:10:19.704Z,25.27
2019-06-07T04:11:19.651Z,25.29
2019-06-07T04:12:19.631Z,25.23
2019-06-07T04:13:19.624Z,25.27
2019-06-07T04:14:19.623Z,25.29
2019-06-07T04:15:19.641Z,25.29
2019-06-07T04:16:19.593Z,25.24
2019-06-07T04:17:19.596Z,25.23
2019-06-07T04:18:19.566Z,25.27
2019-06-07T04:19:19.585Z,25.26
2019-06-07T04:20:19.555Z,25.23
2019-06-07T04:21:19.533Z,25.22
2019-06-07T04:22:19.526Z,25.26
2019-06-07T04:23:30.008Z,25.29
2019-06-07T04:24:19.524Z,25.29
2019-06-07T04:25:19.496Z,25.26
2019-06-07T04:26:19.491Z,25.26
2019-06-07T04:27:19.502Z,25.29
2019-06-07T04:28:19.471Z,25.22
2019-06-07T04:30:00.001Z,25.17
2019-06-07T04:30:19.440Z,25.26
2019-06-07T04:31:19.430Z,25.19
2019-06-07T04:32:19.423Z,25.12
2019-06-07T04:33:19.410Z,25.23
2019-06-07T04:34:19.409Z,25.14
2019-06-07T04:35:19.393Z,25.19
2019-06-07T04:36:38.724Z,25.22
2019-06-07T04:37:19.370Z,25.26
2019-06-07T04:38:19.357Z,25.23
2019-06-07T04:39:19.442Z,25.20
2019-06-07T04:40:19.332Z,25.20
2019-06-07T04:41:19.750Z,25.17
2019-06-07T04:42:19.330Z,25.16
2019-06-07T04:43:19.305Z,25.20
2019-06-07T04:44:19.327Z,25.16
2019-06-07T04:45:33.700Z,25.11
2019-06-07T04:46:19.270Z,25.17
2019-06-07T04:47:19.258Z,25.24
2019-06-07T04:48:19.262Z,25.16
2019-06-07T04:49:19.254Z,25.24
2019-06-07T04:50:19.237Z,25.19
2019-06-07T04:51:19.253Z,25.22
2019-06-07T04:52:19.251Z,25.24
2019-06-07T04:53:19.204Z,25.27
2019-06-07T04:54:19.207Z,25.26
2019-06-07T04:55:19.175Z,25.26
2019-06-07T04:56:19.167Z,25.27
2019-06-07T04:57:19.172Z,25.14
2019-06-07T04:58:19.141Z,25.27
2019-06-07T05:00:01.393Z,25.26
2019-06-07T05:00:49.900Z,25.17
2019-06-07T05:01:27.363Z,25.20
2019-06-07T05:02:19.100Z,25.17
2019-06-07T05:03:19.106Z,25.22
2019-06-07T05:04:19.087Z,25.27
2019-06-07T05:05:19.074Z,25.27
2019-06-07T05:06:19.061Z,25.17
2019-06-07T05:07:19.045Z,25.22
2019-06-07T05:08:28.037Z,25.26
2019-06-07T05:09:19.046Z,25.20
2019-06-07T05:10:19.028Z,25.23
2019-06-07T05:11:19.027Z,25.17
2019-06-07T05:12:18.991Z,25.16
2019-06-07T05:13:18.991Z,25.14
2019-06-07T05:14:19.064Z,25.16
2019-06-07T05:15:18.969Z,25.20
2019-06-07T05:16:18.995Z,25.17
2019-06-07T05:17:18.946Z,25.17
2019-06-07T05:18:18.954Z,25.20
2019-06-07T05:19:18.943Z,25.23
2019-06-07T05:20:18.927Z,25.22
2019-06-07T05:21:18.901Z,25.14
2019-06-07T05:22:18.962Z,25.09
2019-06-07T05:24:00.147Z,25.14
2019-06-07T05:24:18.895Z,25.17
2019-06-07T05:25:18.873Z,25.17
2019-06-07T05:26:18.844Z,25.22
2019-06-07T05:27:18.833Z,25.22
2019-06-07T05:28:18.829Z,25.22
2019-06-07T05:29:18.824Z,25.22
2019-06-07T05:30:51.104Z,25.17
2019-06-07T05:31:18.785Z,25.17
2019-06-07T05:32:18.790Z,25.19
2019-06-07T05:33:18.772Z,25.07
2019-06-07T05:34:18.764Z,25.02
2019-06-07T05:35:18.793Z,24.98
2019-06-07T05:36:18.733Z,24.90
2019-06-07T05:37:18.751Z,24.82
2019-06-07T05:38:18.723Z,24.75
2019-06-07T05:39:18.714Z,24.64
2019-06-07T05:40:18.698Z,24.60
2019-06-07T05:41:18.689Z,24.41
2019-06-07T05:42:18.677Z,24.26
2019-06-07T05:43:18.661Z,24.23
2019-06-07T05:44:18.681Z,24.09
2019-06-07T05:45:18.645Z,24.02
2019-06-07T05:46:18.636Z,24.02
2019-06-07T05:47:18.622Z,23.94
2019-06-07T05:48:18.613Z,23.92
2019-06-07T05:49:18.627Z,23.93
2019-06-07T05:50:39.188Z,23.86
2019-06-07T05:51:18.573Z,23.89
2019-06-07T05:52:18.568Z,23.86
2019-06-07T05:53:18.571Z,23.87
2019-06-07T05:54:18.549Z,23.89
2019-06-07T05:55:18.550Z,23.82
2019-06-07T05:56:18.585Z,23.86
2019-06-07T05:57:18.525Z,23.89
2019-06-07T05:58:18.867Z,23.84
2019-06-07T05:59:18.495Z,23.86
2019-06-07T06:00:18.491Z,23.89
2019-06-07T06:02:22.142Z,23.82
2019-06-07T06:03:19.113Z,23.84
2019-06-07T06:04:18.439Z,23.84
2019-06-07T06:05:32.363Z,23.84
2019-06-07T06:06:19.149Z,23.87
2019-06-07T06:07:18.451Z,23.81
2019-06-07T06:08:18.388Z,23.84
2019-06-07T06:09:18.386Z,23.84
2019-06-07T06:10:18.404Z,23.79
2019-06-07T06:11:18.369Z,23.71
2019-06-07T06:12:33.823Z,23.82
2019-06-07T06:13:18.378Z,23.84
2019-06-07T06:14:18.372Z,23.89
2019-06-07T06:15:18.380Z,23.84
2019-06-07T06:16:18.324Z,23.81
2019-06-07T06:17:18.309Z,23.86
2019-06-07T06:18:18.317Z,23.72
2019-06-07T06:19:18.326Z,23.82
2019-06-07T06:20:18.316Z,23.84
2019-06-07T06:21:20.197Z,23.82
2019-06-07T06:22:18.250Z,23.77
2019-06-07T06:23:18.270Z,23.81
2019-06-07T06:24:18.240Z,23.81
2019-06-07T06:25:34.451Z,23.72
2019-06-07T06:26:20.433Z,23.74
2019-06-07T06:27:55.703Z,23.64
2019-06-07T06:28:18.222Z,23.72
2019-06-07T06:29:18.186Z,23.77
2019-06-07T06:30:18.193Z,23.62
2019-06-07T06:31:18.196Z,23.63
2019-06-07T06:33:33.127Z,23.50
2019-06-07T06:34:18.382Z,23.49
2019-06-07T06:35:18.133Z,23.54
2019-06-07T06:36:19.137Z,23.44
2019-06-07T06:37:18.091Z,23.41
2019-06-07T06:38:18.091Z,23.35
2019-06-07T06:39:18.073Z,23.41
2019-06-07T06:40:18.064Z,23.31
2019-06-07T06:41:18.116Z,23.34
2019-06-07T06:42:18.055Z,23.34
2019-06-07T06:43:18.029Z,23.23
2019-06-07T06:44:18.014Z,23.31
2019-06-07T06:45:18.029Z,23.32
2019-06-07T06:46:37.558Z,23.25
2019-06-07T06:47:17.991Z,23.34
2019-06-07T06:48:17.973Z,23.38
2019-06-07T06:49:18.590Z,23.32
2019-06-07T06:50:17.956Z,23.41
2019-06-07T06:51:17.935Z,23.42
2019-06-07T06:52:17.920Z,23.42
2019-06-07T06:53:17.927Z,23.42
2019-06-07T06:54:39.026Z,23.32
2019-06-07T06:55:17.900Z,23.29
2019-06-07T06:56:18.126Z,23.31
2019-06-07T06:57:20.373Z,23.34
2019-06-07T06:58:17.872Z,23.32
2019-06-07T07:00:17.859Z,23.34
2019-06-07T07:01:17.839Z,23.31
2019-06-07T07:02:18.022Z,23.34
2019-06-07T07:04:20.934Z,23.34
2019-06-07T07:05:17.811Z,23.42
2019-06-07T07:06:25.862Z,23.37
2019-06-07T07:07:18.318Z,23.34
2019-06-07T07:08:17.833Z,23.38
2019-06-07T07:09:17.753Z,23.35
2019-06-07T07:10:17.756Z,23.32
2019-06-07T07:11:17.757Z,23.34
2019-06-07T07:12:18.294Z,23.34
2019-06-07T07:13:17.715Z,23.32
2019-06-07T07:14:18.493Z,23.38
2019-06-07T07:15:17.847Z,23.41
2019-06-07T07:16:17.682Z,23.42
2019-06-07T07:17:17.793Z,23.44
2019-06-07T07:18:17.663Z,23.42
2019-06-07T07:19:17.645Z,23.38
2019-06-07T07:20:17.626Z,23.45
2019-06-07T07:21:17.743Z,23.52
2019-06-07T07:22:17.619Z,23.42
2019-06-07T07:23:17.648Z,23.49
2019-06-07T07:24:21.581Z,23.57
2019-06-07T07:25:17.599Z,23.49
2019-06-07T07:26:18.351Z,23.62
2019-06-07T07:27:17.563Z,23.53
2019-06-07T07:28:17.582Z,23.62
2019-06-07T07:29:17.530Z,23.56
2019-06-07T07:30:35.938Z,23.56
2019-06-07T07:31:17.506Z,23.62
2019-06-07T07:32:17.525Z,23.60
2019-06-07T07:33:17.486Z,23.60
2019-06-07T07:34:34.854Z,23.59
2019-06-07T07:35:17.578Z,23.68
2019-06-07T07:36:37.661Z,23.62
2019-06-07T07:37:17.459Z,23.62
2019-06-07T07:38:17.444Z,23.60
2019-06-07T07:39:17.450Z,23.68
2019-06-07T07:41:17.415Z,23.79
2019-06-07T07:42:21.497Z,23.82
2019-06-07T07:43:18.393Z,23.86
2019-06-07T07:44:17.367Z,23.93
2019-06-07T07:45:17.353Z,23.97
2019-06-07T07:46:29.268Z,24.02
2019-06-07T07:47:17.366Z,23.94
2019-06-07T07:48:18.646Z,24.05
2019-06-07T07:49:17.313Z,24.12
2019-06-07T07:50:17.307Z,24.15
2019-06-07T07:51:17.310Z,24.29
2019-06-07T07:52:17.308Z,24.21
2019-06-07T07:53:17.274Z,24.23
2019-06-07T07:54:17.296Z,24.24
2019-06-07T07:55:17.307Z,24.29
2019-06-07T07:56:17.251Z,24.27
2019-06-07T07:57:17.285Z,24.30
2019-06-07T07:58:17.244Z,24.36
2019-06-07T07:59:17.218Z,24.42
2019-06-07T08:00:49.684Z,24.36
2019-06-07T08:01:17.205Z,24.36
2019-06-07T08:02:21.188Z,24.45
2019-06-07T08:03:17.170Z,24.48
2019-06-07T08:04:17.253Z,24.44
2019-06-07T08:05:25.598Z,24.52
2019-06-07T08:06:17.135Z,24.44
2019-06-07T08:07:17.129Z,24.46
2019-06-07T08:08:17.103Z,24.51
2019-06-07T08:09:17.132Z,24.53
2019-06-07T08:10:17.456Z,24.49
2019-06-07T08:11:17.484Z,24.48
2019-06-07T08:12:17.140Z,24.51
2019-06-07T08:13:25.388Z,24.49
2019-06-07T08:14:17.050Z,24.44
2019-06-07T08:15:17.057Z,24.39
2019-06-07T08:16:18.827Z,24.46
2019-06-07T08:17:17.066Z,24.36
2019-06-07T08:18:17.016Z,24.37
2019-06-07T08:19:16.988Z,24.46
2019-06-07T08:20:17.153Z,24.51
2019-06-07T08:21:25.362Z,24.42
2019-06-07T08:22:16.957Z,24.46
2019-06-07T08:23:17.823Z,24.44
2019-06-07T08:24:16.943Z,24.42
2019-06-07T08:25:16.921Z,24.37
2019-06-07T08:26:16.928Z,24.41
2019-06-07T08:27:25.819Z,24.41
2019-06-07T08:28:16.893Z,24.39
2019-06-07T08:29:16.887Z,24.41
2019-06-07T08:30:47.226Z,24.36
2019-06-07T08:31:16.869Z,24.36
2019-06-07T08:32:21.008Z,24.37
2019-06-07T08:33:25.939Z,24.34
2019-06-07T08:34:16.843Z,24.41
2019-06-07T08:36:02.587Z,24.44
2019-06-07T08:36:25.164Z,24.39
2019-06-07T08:37:17.026Z,24.39
2019-06-07T08:38:27.291Z,24.39
2019-06-07T08:39:16.770Z,24.42
2019-06-07T08:40:16.803Z,24.41
2019-06-07T08:41:16.759Z,24.41
2019-06-07T08:42:22.004Z,24.33
2019-06-07T08:43:20.670Z,24.34
2019-06-07T08:44:23.865Z,24.41
2019-06-07T08:45:16.702Z,24.44
2019-06-07T08:46:16.724Z,24.39
2019-06-07T08:47:20.839Z,24.39
2019-06-07T08:48:27.377Z,24.34
2019-06-07T08:49:16.674Z,24.41
2019-06-07T08:50:16.684Z,24.39
2019-06-07T08:51:16.646Z,24.45
2019-06-07T08:52:16.634Z,24.39
2019-06-07T08:53:16.638Z,24.39
2019-06-07T08:54:22.985Z,24.37
2019-06-07T08:55:16.604Z,24.42
2019-06-07T08:56:16.616Z,24.34
2019-06-07T08:57:21.165Z,24.36
2019-06-07T08:58:16.612Z,24.42
2019-06-07T08:59:16.576Z,24.39
2019-06-07T09:00:42.891Z,24.37
2019-06-07T09:01:16.539Z,24.31
2019-06-07T09:02:23.749Z,24.31
2019-06-07T09:03:16.521Z,24.31
2019-06-07T09:04:17.604Z,24.36
2019-06-07T09:05:16.494Z,24.39
2019-06-07T09:07:00.970Z,24.27
2019-06-07T09:07:19.770Z,24.30
2019-06-07T09:08:30.326Z,24.29
2019-06-07T09:09:16.472Z,24.29
2019-06-07T09:10:16.582Z,24.27
2019-06-07T09:11:16.435Z,24.33
2019-06-07T09:12:16.499Z,24.31
2019-06-07T09:13:16.706Z,24.34
2019-06-07T09:14:22.344Z,24.33
2019-06-07T09:15:23.502Z,24.34
2019-06-07T09:16:16.767Z,24.39
2019-06-07T09:17:16.363Z,24.27
2019-06-07T09:18:41.127Z,24.27
2019-06-07T09:19:16.409Z,24.29
2019-06-07T09:20:35.695Z,24.30
2019-06-07T09:21:16.325Z,24.37
2019-06-07T09:22:16.358Z,24.34
2019-06-07T09:23:17.587Z,24.26
2019-06-07T09:24:16.291Z,24.24
2019-06-07T09:25:21.058Z,24.27
2019-06-07T09:26:18.769Z,24.27
2019-06-07T09:27:16.249Z,24.30
2019-06-07T09:28:20.069Z,24.29
2019-06-07T09:29:16.815Z,24.27
2019-06-07T09:30:18.830Z,24.36
2019-06-07T09:31:16.224Z,24.37
2019-06-07T09:32:18.508Z,24.31
2019-06-07T09:33:16.209Z,24.42
2019-06-07T09:34:16.197Z,24.36
2019-06-07T09:35:17.522Z,24.31
2019-06-07T09:36:16.157Z,24.37
2019-06-07T09:38:03.127Z,24.37
2019-06-07T09:38:25.613Z,24.48
2019-06-07T09:39:16.140Z,24.46
2019-06-07T09:40:26.953Z,24.44
2019-06-07T09:41:16.104Z,24.46
2019-06-07T09:42:16.092Z,24.46
2019-06-07T09:44:00.161Z,24.42
2019-06-07T09:44:25.219Z,24.52
2019-06-07T09:45:16.083Z,24.59
2019-06-07T09:46:16.931Z,24.52
2019-06-07T09:47:31.114Z,24.52
2019-06-07T09:48:47.644Z,24.52
2019-06-07T09:49:28.982Z,24.53
2019-06-07T09:50:16.107Z,24.53
2019-06-07T09:51:19.848Z,24.51
2019-06-07T09:52:16.201Z,24.61
2019-06-07T09:53:22.503Z,24.52
2019-06-07T09:55:02.619Z,24.52
2019-06-07T09:55:24.361Z,24.53
2019-06-07T09:56:15.956Z,24.59
2019-06-07T09:57:17.533Z,24.55
2019-06-07T09:58:50.522Z,24.55
2019-06-07T09:59:15.909Z,24.59
2019-06-07T10:00:40.057Z,24.51
2019-06-07T10:01:15.920Z,24.60
2019-06-07T10:02:15.875Z,24.60
2019-06-07T10:03:21.147Z,24.46
2019-06-07T10:04:30.731Z,24.52
2019-06-07T10:05:15.841Z,24.46
2019-06-07T10:06:15.869Z,24.61
2019-06-07T10:07:30.678Z,24.55
2019-06-07T10:09:14.744Z,24.64
2019-06-07T10:11:15.805Z,24.63
2019-06-07T10:12:15.777Z,24.63
2019-06-07T10:13:15.775Z,24.56
2019-06-07T10:14:15.780Z,24.55
2019-06-07T10:15:15.753Z,24.61
2019-06-07T10:16:15.876Z,24.59
2019-06-07T10:17:15.715Z,24.55
2019-06-07T10:18:15.711Z,24.59
2019-06-07T10:19:15.710Z,24.61
2019-06-07T10:20:15.700Z,24.63
2019-06-07T10:21:15.850Z,24.60
2019-06-07T10:22:15.670Z,24.56
2019-06-07T10:23:15.659Z,24.60
2019-06-07T10:24:15.642Z,24.66
2019-06-07T10:25:15.657Z,24.60
2019-06-07T10:26:15.635Z,24.56
2019-06-07T10:27:15.618Z,24.67
2019-06-07T10:28:15.623Z,24.63
2019-06-07T10:29:15.596Z,24.63
2019-06-07T10:30:16.596Z,24.63
2019-06-07T10:31:15.580Z,24.67
2019-06-07T10:32:15.631Z,24.63
2019-06-07T10:33:15.575Z,24.59
2019-06-07T10:34:15.532Z,24.70
2019-06-07T10:35:16.598Z,24.64
2019-06-07T10:36:15.553Z,24.67
2019-06-07T10:37:16.726Z,24.59
2019-06-07T10:38:15.500Z,24.66
2019-06-07T10:39:15.563Z,24.64
2019-06-07T10:40:15.472Z,24.56
2019-06-07T10:41:16.505Z,24.64
2019-06-07T10:42:15.455Z,24.63
2019-06-07T10:43:15.458Z,24.66
2019-06-07T10:44:15.428Z,24.60
2019-06-07T10:45:15.442Z,24.68
2019-06-07T10:46:15.411Z,24.74
2019-06-07T10:47:15.403Z,24.71
2019-06-07T10:48:15.401Z,24.64
2019-06-07T10:49:15.377Z,24.71
2019-06-07T10:50:15.383Z,24.74
2019-06-07T10:51:15.378Z,24.61
2019-06-07T10:52:15.348Z,24.70
2019-06-07T10:53:15.348Z,24.70
2019-06-07T10:54:24.797Z,24.70
2019-06-07T10:55:15.321Z,24.64
2019-06-07T10:56:15.310Z,24.71
2019-06-07T10:57:16.248Z,24.66
2019-06-07T10:58:15.311Z,24.67
2019-06-07T10:59:15.282Z,24.67
2019-06-07T11:00:15.281Z,24.71
2019-06-07T11:01:15.253Z,24.75
2019-06-07T11:02:15.247Z,24.68
2019-06-07T11:03:15.223Z,24.68
2019-06-07T11:04:15.413Z,24.71
2019-06-07T11:05:15.261Z,24.66
2019-06-07T11:06:15.203Z,24.75
2019-06-07T11:07:15.200Z,24.75
2019-06-07T11:08:15.195Z,24.82
2019-06-07T11:09:15.188Z,24.74
2019-06-07T11:10:19.638Z,24.74
2019-06-07T11:11:15.165Z,24.75
2019-06-07T11:12:15.436Z,24.80
2019-06-07T11:13:15.137Z,24.86
2019-06-07T11:14:15.719Z,24.77
2019-06-07T11:15:15.125Z,24.80
2019-06-07T11:16:15.664Z,24.79
2019-06-07T11:17:15.829Z,24.75
2019-06-07T11:18:16.456Z,24.82
2019-06-07T11:19:17.819Z,24.83
2019-06-07T11:20:15.065Z,24.74
2019-06-07T11:21:15.050Z,24.86
2019-06-07T11:22:15.059Z,24.84
2019-06-07T11:23:15.003Z,24.79
2019-06-07T11:24:18.650Z,24.74
2019-06-07T11:25:14.986Z,24.80
2019-06-07T11:26:15.027Z,24.86
2019-06-07T11:27:16.370Z,24.83
2019-06-07T11:28:14.979Z,24.93
2019-06-07T11:29:15.175Z,24.80
2019-06-07T11:30:14.938Z,24.83
2019-06-07T11:31:15.210Z,24.80
2019-06-07T11:32:15.019Z,24.84
2019-06-07T11:33:16.447Z,24.83
2019-06-07T11:34:14.884Z,24.82
2019-06-07T11:35:19.140Z,24.89
2019-06-07T11:36:15.869Z,24.86
2019-06-07T11:37:16.185Z,24.89
2019-06-07T11:38:14.867Z,24.83
2019-06-07T11:39:15.212Z,24.89
2019-06-07T11:40:30.833Z,24.87
2019-06-07T11:41:15.871Z,24.90
2019-06-07T11:42:14.831Z,24.87
2019-06-07T11:43:15.045Z,24.89
2019-06-07T11:44:15.090Z,24.92
2019-06-07T11:45:15.815Z,24.94
2019-06-07T11:46:15.132Z,24.90
2019-06-07T11:47:14.775Z,24.84
2019-06-07T11:48:15.479Z,24.90
2019-06-07T11:49:19.910Z,24.89
2019-06-07T11:50:15.786Z,24.94
2019-06-07T11:51:15.004Z,24.93
2019-06-07T11:52:15.763Z,24.90
2019-06-07T11:53:14.745Z,24.93
2019-06-07T11:54:16.205Z,24.97
2019-06-07T11:55:15.816Z,24.92
2019-06-07T11:56:15.968Z,24.94
2019-06-07T11:57:15.138Z,24.94
2019-06-07T11:58:18.465Z,24.90
2019-06-07T11:59:15.302Z,24.99
2019-06-07T12:00:16.071Z,24.98
2019-06-07T12:01:16.631Z,24.90
2019-06-07T12:02:15.510Z,24.94
2019-06-07T12:03:15.863Z,24.98
2019-06-07T12:04:28.710Z,24.97
2019-06-07T12:05:17.207Z,24.93
2019-06-07T12:06:16.236Z,24.98
2019-06-07T12:07:17.036Z,24.92
2019-06-07T12:08:14.522Z,24.94
2019-06-07T12:09:14.596Z,25.07
2019-06-07T12:10:18.131Z,25.08
2019-06-07T12:11:14.493Z,25.04
2019-06-07T12:12:14.623Z,25.09
2019-06-07T12:13:15.582Z,25.02
2019-06-07T12:14:14.820Z,25.02
2019-06-07T12:15:15.053Z,25.08
2019-06-07T12:16:15.377Z,25.04
2019-06-07T12:17:15.451Z,25.12
2019-06-07T12:18:15.179Z,25.04
2019-06-07T12:19:15.508Z,25.17
2019-06-07T12:20:16.592Z,25.09
2019-06-07T12:21:15.640Z,25.02
2019-06-07T12:22:15.850Z,25.14
2019-06-07T12:23:14.379Z,25.11
2019-06-07T12:24:14.365Z,25.05
2019-06-07T12:25:19.678Z,25.16
2019-06-07T12:26:14.765Z,25.09
2019-06-07T12:27:14.712Z,25.22
2019-06-07T12:28:14.660Z,25.16
2019-06-07T12:29:14.924Z,25.20
2019-06-07T12:30:22.501Z,25.19
2019-06-07T12:31:15.045Z,25.20
2019-06-07T12:32:15.365Z,25.17
2019-06-07T12:33:15.505Z,25.20
2019-06-07T12:34:15.451Z,25.22
2019-06-07T12:35:15.712Z,25.26
2019-06-07T12:36:15.796Z,25.26
2019-06-07T12:37:17.745Z,25.24
2019-06-07T12:38:14.664Z,25.16
2019-06-07T12:39:14.201Z,25.26
2019-06-07T12:40:22.950Z,25.22
2019-06-07T12:41:14.188Z,25.17
2019-06-07T12:42:14.897Z,25.27
2019-06-07T12:43:14.609Z,25.23
2019-06-07T12:44:14.604Z,25.20
2019-06-07T12:45:30.779Z,25.23
2019-06-07T12:46:21.084Z,25.24
2019-06-07T12:47:15.005Z,25.22
2019-06-07T12:48:17.593Z,25.27
2019-06-07T12:49:14.992Z,25.24
2019-06-07T12:50:15.363Z,25.30
2019-06-07T12:51:15.169Z,25.29
2019-06-07T12:52:17.639Z,25.29
2019-06-07T12:53:15.516Z,25.23
2019-06-07T12:54:15.347Z,25.31
2019-06-07T12:55:15.612Z,25.31
2019-06-07T12:56:14.011Z,25.27
2019-06-07T12:57:14.083Z,25.31
2019-06-07T12:58:14.030Z,25.35
2019-06-07T12:59:14.001Z,25.42
2019-06-07T13:00:14.286Z,25.35